sensor_id;sensor_type;location;lat;lon;timestamp;temperature;humidity
15717;DHT22;7960;50.908;4.204;2023-06-22T00:00:11;21.20;99.90
15717;DHT22;7960;50.908;4.204;2023-06-22T00:02:38;21.30;99.90
15717;DHT22;7960;50.908;4.204;2023-06-22T00:05:05;21.20;99.90
15717;DHT22;7960;50.908;4.204;2023-06-22T00:07:32;21.20;99.90
15717;DHT22;7960;50.908;4.204;2023-06-22T00:09:59;21.20;99.90
15717;DHT22;7960;50.908;4.204;2023-06-22T00:12:27;21.20;99.90
15717;DHT22;7960;50.908;4.204;2023-06-22T00:14:54;21.10;99.90
15717;DHT22;7960;50.908;4.204;2023-06-22T00:17:21;21.10;99.90
15717;DHT22;7960;50.908;4.204;2023-06-22T00:19:48;21.00;99.90
15717;DHT22;7960;50.908;4.204;2023-06-22T00:22:19;21.10;99.90
15717;DHT22;7960;50.908;4.204;2023-06-22T00:24:53;21.10;99.90
15717;DHT22;7960;50.908;4.204;2023-06-22T00:27:20;21.00;99.90
15717;DHT22;7960;50.908;4.204;2023-06-22T00:29:48;21.10;99.90
15717;DHT22;7960;50.908;4.204;2023-06-22T00:32:15;21.10;99.90
15717;DHT22;7960;50.908;4.204;2023-06-22T00:34:42;21.10;99.90
15717;DHT22;7960;50.908;4.204;2023-06-22T00:37:09;21.00;99.90
15717;DHT22;7960;50.908;4.204;2023-06-22T00:39:37;21.00;99.90
15717;DHT22;7960;50.908;4.204;2023-06-22T00:42:05;20.90;99.90
15717;DHT22;7960;50.908;4.204;2023-06-22T00:44:31;21.00;99.90
15717;DHT22;7960;50.908;4.204;2023-06-22T00:47:00;20.90;99.90
15717;DHT22;7960;50.908;4.204;2023-06-22T00:49:27;20.90;99.90
15717;DHT22;7960;50.908;4.204;2023-06-22T00:51:54;20.80;99.90
15717;DHT22;7960;50.908;4.204;2023-06-22T00:54:21;20.80;99.90
15717;DHT22;7960;50.908;4.204;2023-06-22T00:56:50;20.90;99.90
15717;DHT22;7960;50.908;4.204;2023-06-22T00:59:20;20.90;99.90
15717;DHT22;7960;50.908;4.204;2023-06-22T01:01:46;20.90;99.90
15717;DHT22;7960;50.908;4.204;2023-06-22T01:04:15;20.90;99.90
15717;DHT22;7960;50.908;4.204;2023-06-22T01:06:47;20.80;99.90
15717;DHT22;7960;50.908;4.204;2023-06-22T01:09:19;20.80;99.90
15717;DHT22;7960;50.908;4.204;2023-06-22T01:11:53;20.90;99.90
15717;DHT22;7960;50.908;4.204;2023-06-22T01:14:23;20.80;99.90
15717;DHT22;7960;50.908;4.204;2023-06-22T01:16:51;20.90;99.90
15717;DHT22;7960;50.908;4.204;2023-06-22T01:19:37;20.70;99.90
15717;DHT22;7960;50.908;4.204;2023-06-22T01:22:08;20.80;99.90
15717;DHT22;7960;50.908;4.204;2023-06-22T01:24:45;20.70;99.90
15717;DHT22;7960;50.908;4.204;2023-06-22T01:27:22;20.80;99.90
15717;DHT22;7960;50.908;4.204;2023-06-22T01:29:57;20.80;99.90
15717;DHT22;7960;50.908;4.204;2023-06-22T01:32:27;20.80;99.90
15717;DHT22;7960;50.908;4.204;2023-06-22T01:34:54;20.60;99.90
15717;DHT22;7960;50.908;4.204;2023-06-22T01:37:22;20.70;99.90
15717;DHT22;7960;50.908;4.204;2023-06-22T01:39:50;20.60;99.90
15717;DHT22;7960;50.908;4.204;2023-06-22T01:42:17;20.50;99.90
15717;DHT22;7960;50.908;4.204;2023-06-22T01:44:44;20.50;99.90
15717;DHT22;7960;50.908;4.204;2023-06-22T01:47:13;20.60;99.90
15717;DHT22;7960;50.908;4.204;2023-06-22T01:49:40;20.60;99.90
15717;DHT22;7960;50.908;4.204;2023-06-22T01:52:07;20.50;99.90
15717;DHT22;7960;50.908;4.204;2023-06-22T01:54:34;20.40;99.90
15717;DHT22;7960;50.908;4.204;2023-06-22T01:57:01;20.50;99.90
15717;DHT22;7960;50.908;4.204;2023-06-22T01:59:32;20.40;99.90
15717;DHT22;7960;50.908;4.204;2023-06-22T02:02:04;20.40;99.90
15717;DHT22;7960;50.908;4.204;2023-06-22T02:04:36;20.40;99.90
15717;DHT22;7960;50.908;4.204;2023-06-22T02:07:08;20.40;99.90
15717;DHT22;7960;50.908;4.204;2023-06-22T02:09:38;20.40;99.90
15717;DHT22;7960;50.908;4.204;2023-06-22T02:12:10;20.30;99.90
15717;DHT22;7960;50.908;4.204;2023-06-22T02:14:38;20.40;99.90
15717;DHT22;7960;50.908;4.204;2023-06-22T02:17:07;20.30;99.90
15717;DHT22;7960;50.908;4.204;2023-06-22T02:19:37;20.40;99.90
15717;DHT22;7960;50.908;4.204;2023-06-22T02:22:04;20.30;99.90
15717;DHT22;7960;50.908;4.204;2023-06-22T02:24:31;20.30;99.90
15717;DHT22;7960;50.908;4.204;2023-06-22T02:26:59;20.20;99.90
15717;DHT22;7960;50.908;4.204;2023-06-22T02:29:26;20.20;99.90
15717;DHT22;7960;50.908;4.204;2023-06-22T02:31:53;20.20;99.90
15717;DHT22;7960;50.908;4.204;2023-06-22T02:34:21;20.10;99.90
15717;DHT22;7960;50.908;4.204;2023-06-22T02:36:49;20.00;99.90
15717;DHT22;7960;50.908;4.204;2023-06-22T02:39:19;20.00;99.90
15717;DHT22;7960;50.908;4.204;2023-06-22T02:41:47;19.90;99.90
15717;DHT22;7960;50.908;4.204;2023-06-22T02:44:14;19.90;99.90
15717;DHT22;7960;50.908;4.204;2023-06-22T02:46:41;19.90;99.90
15717;DHT22;7960;50.908;4.204;2023-06-22T02:49:08;19.90;99.90
15717;DHT22;7960;50.908;4.204;2023-06-22T02:51:37;19.80;99.90
15717;DHT22;7960;50.908;4.204;2023-06-22T02:54:06;19.80;99.90
15717;DHT22;7960;50.908;4.204;2023-06-22T02:56:33;19.80;99.90
15717;DHT22;7960;50.908;4.204;2023-06-22T02:59:02;19.80;99.90
15717;DHT22;7960;50.908;4.204;2023-06-22T03:01:29;19.80;99.90
15717;DHT22;7960;50.908;4.204;2023-06-22T03:03:56;19.80;99.90
15717;DHT22;7960;50.908;4.204;2023-06-22T03:06:23;19.80;99.90
15717;DHT22;7960;50.908;4.204;2023-06-22T03:08:58;19.70;99.90
15717;DHT22;7960;50.908;4.204;2023-06-22T03:11:26;19.70;99.90
15717;DHT22;7960;50.908;4.204;2023-06-22T03:13:53;19.70;99.90
15717;DHT22;7960;50.908;4.204;2023-06-22T03:16:20;19.80;99.90
15717;DHT22;7960;50.908;4.204;2023-06-22T03:18:47;19.70;99.90
15717;DHT22;7960;50.908;4.204;2023-06-22T03:21:14;19.70;99.90
15717;DHT22;7960;50.908;4.204;2023-06-22T03:23:42;19.70;99.90
15717;DHT22;7960;50.908;4.204;2023-06-22T03:26:09;19.60;99.90
15717;DHT22;7960;50.908;4.204;2023-06-22T03:28:37;19.70;99.90
15717;DHT22;7960;50.908;4.204;2023-06-22T03:31:04;19.60;99.90
15717;DHT22;7960;50.908;4.204;2023-06-22T03:33:32;19.60;99.90
15717;DHT22;7960;50.908;4.204;2023-06-22T03:35:59;19.50;99.90
15717;DHT22;7960;50.908;4.204;2023-06-22T03:38:26;19.60;99.90
15717;DHT22;7960;50.908;4.204;2023-06-22T03:40:52;19.50;99.90
15717;DHT22;7960;50.908;4.204;2023-06-22T03:43:19;19.60;99.90
15717;DHT22;7960;50.908;4.204;2023-06-22T03:45:47;19.60;99.90
15717;DHT22;7960;50.908;4.204;2023-06-22T03:48:14;19.70;99.90
15717;DHT22;7960;50.908;4.204;2023-06-22T03:50:41;19.60;99.90
15717;DHT22;7960;50.908;4.204;2023-06-22T03:53:09;19.60;99.90
15717;DHT22;7960;50.908;4.204;2023-06-22T03:55:36;19.70;99.90
15717;DHT22;7960;50.908;4.204;2023-06-22T03:58:03;19.60;99.90
15717;DHT22;7960;50.908;4.204;2023-06-22T04:00:31;19.70;99.90
15717;DHT22;7960;50.908;4.204;2023-06-22T04:02:59;19.70;99.90
15717;DHT22;7960;50.908;4.204;2023-06-22T04:05:26;19.70;99.90
15717;DHT22;7960;50.908;4.204;2023-06-22T04:07:53;19.50;99.90
15717;DHT22;7960;50.908;4.204;2023-06-22T04:10:20;19.60;99.90
15717;DHT22;7960;50.908;4.204;2023-06-22T04:12:47;19.60;99.90
15717;DHT22;7960;50.908;4.204;2023-06-22T04:15:14;19.50;99.90
15717;DHT22;7960;50.908;4.204;2023-06-22T04:17:41;19.50;99.90
15717;DHT22;7960;50.908;4.204;2023-06-22T04:20:09;19.50;99.90
15717;DHT22;7960;50.908;4.204;2023-06-22T04:22:36;19.60;99.90
15717;DHT22;7960;50.908;4.204;2023-06-22T04:25:05;19.60;99.90
15717;DHT22;7960;50.908;4.204;2023-06-22T04:27:33;19.60;99.90
15717;DHT22;7960;50.908;4.204;2023-06-22T04:30:03;19.50;99.90
15717;DHT22;7960;50.908;4.204;2023-06-22T04:32:32;19.50;99.90
15717;DHT22;7960;50.908;4.204;2023-06-22T04:34:59;19.60;99.90
15717;DHT22;7960;50.908;4.204;2023-06-22T04:37:28;19.60;99.90
15717;DHT22;7960;50.908;4.204;2023-06-22T04:39:55;19.50;99.90
15717;DHT22;7960;50.908;4.204;2023-06-22T04:42:21;19.60;99.90
15717;DHT22;7960;50.908;4.204;2023-06-22T04:44:48;19.60;99.90
15717;DHT22;7960;50.908;4.204;2023-06-22T04:47:15;19.60;99.90
15717;DHT22;7960;50.908;4.204;2023-06-22T04:49:42;19.70;99.90
15717;DHT22;7960;50.908;4.204;2023-06-22T04:52:11;19.70;99.90
15717;DHT22;7960;50.908;4.204;2023-06-22T04:54:40;19.60;99.90
15717;DHT22;7960;50.908;4.204;2023-06-22T04:57:14;19.80;99.90
15717;DHT22;7960;50.908;4.204;2023-06-22T04:59:41;19.80;99.90
15717;DHT22;7960;50.908;4.204;2023-06-22T05:02:08;19.90;99.90
15717;DHT22;7960;50.908;4.204;2023-06-22T05:04:35;20.00;99.90
15717;DHT22;7960;50.908;4.204;2023-06-22T05:07:04;20.00;99.90
15717;DHT22;7960;50.908;4.204;2023-06-22T05:09:31;19.90;99.90
15717;DHT22;7960;50.908;4.204;2023-06-22T05:12:00;19.90;99.90
15717;DHT22;7960;50.908;4.204;2023-06-22T05:14:28;19.90;99.90
15717;DHT22;7960;50.908;4.204;2023-06-22T05:16:55;19.80;99.90
15717;DHT22;7960;50.908;4.204;2023-06-22T05:19:24;19.90;99.90
15717;DHT22;7960;50.908;4.204;2023-06-22T05:21:51;19.80;99.90
15717;DHT22;7960;50.908;4.204;2023-06-22T05:24:18;19.80;99.90
15717;DHT22;7960;50.908;4.204;2023-06-22T05:26:44;19.90;99.90
15717;DHT22;7960;50.908;4.204;2023-06-22T05:29:12;19.90;99.90
15717;DHT22;7960;50.908;4.204;2023-06-22T05:31:39;20.00;99.90
15717;DHT22;7960;50.908;4.204;2023-06-22T05:34:07;20.00;99.90
15717;DHT22;7960;50.908;4.204;2023-06-22T05:36:33;20.00;99.90
15717;DHT22;7960;50.908;4.204;2023-06-22T05:39:11;20.00;99.90
15717;DHT22;7960;50.908;4.204;2023-06-22T05:41:38;19.80;99.90
15717;DHT22;7960;50.908;4.204;2023-06-22T05:44:05;19.90;99.90
15717;DHT22;7960;50.908;4.204;2023-06-22T05:46:33;20.00;99.90
15717;DHT22;7960;50.908;4.204;2023-06-22T05:49:00;20.00;99.90
15717;DHT22;7960;50.908;4.204;2023-06-22T05:51:27;20.00;99.90
15717;DHT22;7960;50.908;4.204;2023-06-22T05:53:54;20.00;99.90
15717;DHT22;7960;50.908;4.204;2023-06-22T05:56:20;20.10;99.90
15717;DHT22;7960;50.908;4.204;2023-06-22T05:58:47;20.00;99.90
15717;DHT22;7960;50.908;4.204;2023-06-22T06:01:14;20.00;99.90
15717;DHT22;7960;50.908;4.204;2023-06-22T06:03:43;20.10;99.90
15717;DHT22;7960;50.908;4.204;2023-06-22T06:06:10;20.10;99.90
15717;DHT22;7960;50.908;4.204;2023-06-22T06:08:37;20.10;99.90
15717;DHT22;7960;50.908;4.204;2023-06-22T06:11:04;20.10;99.90
15717;DHT22;7960;50.908;4.204;2023-06-22T06:13:31;20.00;99.90
15717;DHT22;7960;50.908;4.204;2023-06-22T06:15:57;19.90;99.90
15717;DHT22;7960;50.908;4.204;2023-06-22T06:18:25;20.00;99.90
15717;DHT22;7960;50.908;4.204;2023-06-22T06:20:53;19.90;99.90
15717;DHT22;7960;50.908;4.204;2023-06-22T06:23:20;19.90;99.90
15717;DHT22;7960;50.908;4.204;2023-06-22T06:25:47;19.90;99.90
15717;DHT22;7960;50.908;4.204;2023-06-22T06:28:13;19.90;99.90
15717;DHT22;7960;50.908;4.204;2023-06-22T06:30:40;19.80;99.90
15717;DHT22;7960;50.908;4.204;2023-06-22T06:33:07;19.90;99.90
15717;DHT22;7960;50.908;4.204;2023-06-22T06:35:34;19.90;99.90
15717;DHT22;7960;50.908;4.204;2023-06-22T06:38:03;19.90;99.90
15717;DHT22;7960;50.908;4.204;2023-06-22T06:40:30;19.90;99.90
15717;DHT22;7960;50.908;4.204;2023-06-22T06:42:56;19.90;99.90
15717;DHT22;7960;50.908;4.204;2023-06-22T06:45:25;19.90;99.90
15717;DHT22;7960;50.908;4.204;2023-06-22T06:47:54;19.90;99.90
15717;DHT22;7960;50.908;4.204;2023-06-22T06:50:21;19.90;99.90
15717;DHT22;7960;50.908;4.204;2023-06-22T06:52:47;19.90;99.90
15717;DHT22;7960;50.908;4.204;2023-06-22T06:55:17;20.00;99.90
15717;DHT22;7960;50.908;4.204;2023-06-22T06:57:45;20.10;99.90
15717;DHT22;7960;50.908;4.204;2023-06-22T07:00:14;20.10;99.90
15717;DHT22;7960;50.908;4.204;2023-06-22T07:02:42;20.10;99.90
15717;DHT22;7960;50.908;4.204;2023-06-22T07:05:10;20.10;99.90
15717;DHT22;7960;50.908;4.204;2023-06-22T07:07:38;20.10;99.90
15717;DHT22;7960;50.908;4.204;2023-06-22T07:10:06;20.20;99.90
15717;DHT22;7960;50.908;4.204;2023-06-22T07:12:34;20.30;99.90
15717;DHT22;7960;50.908;4.204;2023-06-22T07:15:02;20.30;99.90
15717;DHT22;7960;50.908;4.204;2023-06-22T07:17:29;20.20;99.90
15717;DHT22;7960;50.908;4.204;2023-06-22T07:19:56;20.30;99.90
15717;DHT22;7960;50.908;4.204;2023-06-22T07:22:23;20.40;99.90
15717;DHT22;7960;50.908;4.204;2023-06-22T07:24:50;20.50;99.90
15717;DHT22;7960;50.908;4.204;2023-06-22T07:27:16;20.50;99.90
15717;DHT22;7960;50.908;4.204;2023-06-22T07:29:46;20.50;99.90
15717;DHT22;7960;50.908;4.204;2023-06-22T07:32:13;20.50;99.90
15717;DHT22;7960;50.908;4.204;2023-06-22T07:34:40;20.60;99.90
15717;DHT22;7960;50.908;4.204;2023-06-22T07:37:07;20.70;99.90
15717;DHT22;7960;50.908;4.204;2023-06-22T07:39:34;20.70;99.90
15717;DHT22;7960;50.908;4.204;2023-06-22T07:42:00;20.70;99.90
15717;DHT22;7960;50.908;4.204;2023-06-22T07:44:27;20.90;99.90
15717;DHT22;7960;50.908;4.204;2023-06-22T07:46:55;20.90;99.90
15717;DHT22;7960;50.908;4.204;2023-06-22T07:49:22;21.00;99.90
15717;DHT22;7960;50.908;4.204;2023-06-22T07:51:49;21.00;99.90
15717;DHT22;7960;50.908;4.204;2023-06-22T07:54:16;21.00;99.90
15717;DHT22;7960;50.908;4.204;2023-06-22T07:56:43;21.10;99.90
15717;DHT22;7960;50.908;4.204;2023-06-22T07:59:10;21.20;99.90
15717;DHT22;7960;50.908;4.204;2023-06-22T08:01:37;21.40;99.90
15717;DHT22;7960;50.908;4.204;2023-06-22T08:04:05;21.50;99.90
15717;DHT22;7960;50.908;4.204;2023-06-22T08:06:32;21.60;99.90
15717;DHT22;7960;50.908;4.204;2023-06-22T08:08:59;21.70;99.90
15717;DHT22;7960;50.908;4.204;2023-06-22T08:11:26;21.60;99.90
15717;DHT22;7960;50.908;4.204;2023-06-22T08:13:53;21.70;99.90
15717;DHT22;7960;50.908;4.204;2023-06-22T08:16:21;21.60;99.90
15717;DHT22;7960;50.908;4.204;2023-06-22T08:18:48;21.60;99.90
15717;DHT22;7960;50.908;4.204;2023-06-22T08:21:16;21.50;99.90
15717;DHT22;7960;50.908;4.204;2023-06-22T08:23:43;21.50;99.90
15717;DHT22;7960;50.908;4.204;2023-06-22T08:26:10;21.50;99.90
15717;DHT22;7960;50.908;4.204;2023-06-22T08:28:37;21.40;99.90
15717;DHT22;7960;50.908;4.204;2023-06-22T08:31:03;21.40;99.90
15717;DHT22;7960;50.908;4.204;2023-06-22T08:33:30;21.40;99.90
15717;DHT22;7960;50.908;4.204;2023-06-22T08:35:58;21.50;99.90
15717;DHT22;7960;50.908;4.204;2023-06-22T08:38:26;21.50;99.90
15717;DHT22;7960;50.908;4.204;2023-06-22T08:40:53;21.50;99.90
15717;DHT22;7960;50.908;4.204;2023-06-22T08:43:20;21.60;99.90
15717;DHT22;7960;50.908;4.204;2023-06-22T08:45:46;21.60;99.90
15717;DHT22;7960;50.908;4.204;2023-06-22T08:48:13;21.60;99.90
15717;DHT22;7960;50.908;4.204;2023-06-22T08:50:41;21.60;99.90
15717;DHT22;7960;50.908;4.204;2023-06-22T08:53:07;21.60;99.90
15717;DHT22;7960;50.908;4.204;2023-06-22T08:55:36;21.70;99.90
15717;DHT22;7960;50.908;4.204;2023-06-22T08:58:03;21.70;99.90
15717;DHT22;7960;50.908;4.204;2023-06-22T09:00:30;21.70;99.90
15717;DHT22;7960;50.908;4.204;2023-06-22T09:03:00;21.70;99.90
15717;DHT22;7960;50.908;4.204;2023-06-22T09:05:27;21.70;99.90
15717;DHT22;7960;50.908;4.204;2023-06-22T09:07:53;21.60;99.90
15717;DHT22;7960;50.908;4.204;2023-06-22T09:10:21;21.50;99.90
15717;DHT22;7960;50.908;4.204;2023-06-22T09:12:49;21.50;99.90
15717;DHT22;7960;50.908;4.204;2023-06-22T09:15:16;21.50;99.90
15717;DHT22;7960;50.908;4.204;2023-06-22T09:17:43;21.50;99.90
15717;DHT22;7960;50.908;4.204;2023-06-22T09:20:12;21.50;99.90
15717;DHT22;7960;50.908;4.204;2023-06-22T09:22:39;21.40;99.90
15717;DHT22;7960;50.908;4.204;2023-06-22T09:25:07;21.40;99.90
15717;DHT22;7960;50.908;4.204;2023-06-22T09:27:34;21.40;99.90
15717;DHT22;7960;50.908;4.204;2023-06-22T09:30:02;21.40;99.90
15717;DHT22;7960;50.908;4.204;2023-06-22T09:32:29;21.30;99.90
15717;DHT22;7960;50.908;4.204;2023-06-22T09:34:56;21.40;99.90
15717;DHT22;7960;50.908;4.204;2023-06-22T09:37:23;21.50;99.90
15717;DHT22;7960;50.908;4.204;2023-06-22T09:39:49;21.40;99.90
15717;DHT22;7960;50.908;4.204;2023-06-22T09:42:16;21.40;99.90
15717;DHT22;7960;50.908;4.204;2023-06-22T09:44:43;21.20;99.90
15717;DHT22;7960;50.908;4.204;2023-06-22T09:47:11;21.10;99.90
15717;DHT22;7960;50.908;4.204;2023-06-22T09:49:38;21.10;99.90
15717;DHT22;7960;50.908;4.204;2023-06-22T09:52:06;20.90;99.90
15717;DHT22;7960;50.908;4.204;2023-06-22T09:54:33;20.90;99.90
15717;DHT22;7960;50.908;4.204;2023-06-22T09:57:00;20.80;99.90
15717;DHT22;7960;50.908;4.204;2023-06-22T09:59:27;20.70;99.90
15717;DHT22;7960;50.908;4.204;2023-06-22T10:01:53;20.50;99.90
15717;DHT22;7960;50.908;4.204;2023-06-22T10:04:22;20.50;99.90
15717;DHT22;7960;50.908;4.204;2023-06-22T10:06:50;20.50;99.90
15717;DHT22;7960;50.908;4.204;2023-06-22T10:09:17;20.40;99.90
15717;DHT22;7960;50.908;4.204;2023-06-22T10:11:44;20.40;99.90
15717;DHT22;7960;50.908;4.204;2023-06-22T10:14:10;20.30;99.90
15717;DHT22;7960;50.908;4.204;2023-06-22T10:16:37;20.10;99.90
15717;DHT22;7960;50.908;4.204;2023-06-22T10:19:04;20.00;99.90
15717;DHT22;7960;50.908;4.204;2023-06-22T10:21:33;19.90;99.90
15717;DHT22;7960;50.908;4.204;2023-06-22T10:24:01;19.50;99.90
15717;DHT22;7960;50.908;4.204;2023-06-22T10:26:31;19.20;99.90
15717;DHT22;7960;50.908;4.204;2023-06-22T10:28:58;19.10;99.90
15717;DHT22;7960;50.908;4.204;2023-06-22T10:31:25;19.00;99.90
15717;DHT22;7960;50.908;4.204;2023-06-22T10:33:53;19.10;99.90
15717;DHT22;7960;50.908;4.204;2023-06-22T10:36:21;19.00;99.90
15717;DHT22;7960;50.908;4.204;2023-06-22T10:38:49;19.10;99.90
15717;DHT22;7960;50.908;4.204;2023-06-22T10:41:16;19.10;99.90
15717;DHT22;7960;50.908;4.204;2023-06-22T10:43:43;18.90;99.90
15717;DHT22;7960;50.908;4.204;2023-06-22T10:46:10;18.90;99.90
15717;DHT22;7960;50.908;4.204;2023-06-22T10:48:37;18.80;99.90
15717;DHT22;7960;50.908;4.204;2023-06-22T10:51:04;18.60;99.90
15717;DHT22;7960;50.908;4.204;2023-06-22T10:53:31;18.50;99.90
15717;DHT22;7960;50.908;4.204;2023-06-22T10:55:59;18.40;99.90
15717;DHT22;7960;50.908;4.204;2023-06-22T10:58:26;18.40;99.90
15717;DHT22;7960;50.908;4.204;2023-06-22T11:00:54;18.50;99.90
15717;DHT22;7960;50.908;4.204;2023-06-22T11:03:21;18.50;99.90
15717;DHT22;7960;50.908;4.204;2023-06-22T11:05:48;18.60;99.90
15717;DHT22;7960;50.908;4.204;2023-06-22T11:08:15;18.60;99.90
15717;DHT22;7960;50.908;4.204;2023-06-22T11:10:43;18.50;99.90
15717;DHT22;7960;50.908;4.204;2023-06-22T11:13:11;18.60;99.90
15717;DHT22;7960;50.908;4.204;2023-06-22T11:15:39;18.60;99.90
15717;DHT22;7960;50.908;4.204;2023-06-22T11:18:05;18.70;99.90
15717;DHT22;7960;50.908;4.204;2023-06-22T11:23:04;18.70;99.90
15717;DHT22;7960;50.908;4.204;2023-06-22T11:25:36;18.70;99.90
15717;DHT22;7960;50.908;4.204;2023-06-22T11:28:04;18.80;99.90
15717;DHT22;7960;50.908;4.204;2023-06-22T11:30:32;18.80;99.90
15717;DHT22;7960;50.908;4.204;2023-06-22T11:33:00;18.80;99.90
15717;DHT22;7960;50.908;4.204;2023-06-22T11:35:26;18.80;99.90
15717;DHT22;7960;50.908;4.204;2023-06-22T11:37:53;18.80;99.90
15717;DHT22;7960;50.908;4.204;2023-06-22T11:40:21;18.90;99.90
15717;DHT22;7960;50.908;4.204;2023-06-22T11:42:48;19.00;99.90
15717;DHT22;7960;50.908;4.204;2023-06-22T11:45:15;19.00;99.90
15717;DHT22;7960;50.908;4.204;2023-06-22T11:47:45;19.00;99.90
15717;DHT22;7960;50.908;4.204;2023-06-22T11:50:13;19.10;99.90
15717;DHT22;7960;50.908;4.204;2023-06-22T11:52:42;19.00;99.90
15717;DHT22;7960;50.908;4.204;2023-06-22T11:55:09;19.10;99.90
15717;DHT22;7960;50.908;4.204;2023-06-22T11:57:37;19.20;99.90
15717;DHT22;7960;50.908;4.204;2023-06-22T12:00:05;19.10;99.90
15717;DHT22;7960;50.908;4.204;2023-06-22T12:02:42;19.20;99.90
15717;DHT22;7960;50.908;4.204;2023-06-22T12:05:11;19.30;99.90
15717;DHT22;7960;50.908;4.204;2023-06-22T12:07:39;19.30;99.90
15717;DHT22;7960;50.908;4.204;2023-06-22T12:10:06;19.30;99.90
15717;DHT22;7960;50.908;4.204;2023-06-22T12:12:35;19.20;99.90
15717;DHT22;7960;50.908;4.204;2023-06-22T12:15:02;19.30;99.90
15717;DHT22;7960;50.908;4.204;2023-06-22T12:17:29;19.30;99.90
15717;DHT22;7960;50.908;4.204;2023-06-22T12:19:56;19.40;99.90
15717;DHT22;7960;50.908;4.204;2023-06-22T12:22:24;19.30;99.90
15717;DHT22;7960;50.908;4.204;2023-06-22T12:24:51;19.40;99.90
15717;DHT22;7960;50.908;4.204;2023-06-22T12:27:18;19.40;99.90
15717;DHT22;7960;50.908;4.204;2023-06-22T12:29:46;19.40;99.90
15717;DHT22;7960;50.908;4.204;2023-06-22T12:32:13;19.40;99.90
15717;DHT22;7960;50.908;4.204;2023-06-22T12:34:41;19.30;99.90
15717;DHT22;7960;50.908;4.204;2023-06-22T12:37:08;19.20;99.90
15717;DHT22;7960;50.908;4.204;2023-06-22T12:39:36;19.10;99.90
15717;DHT22;7960;50.908;4.204;2023-06-22T12:42:04;19.20;99.90
15717;DHT22;7960;50.908;4.204;2023-06-22T12:44:32;19.20;99.90
15717;DHT22;7960;50.908;4.204;2023-06-22T12:46:59;19.20;99.90
15717;DHT22;7960;50.908;4.204;2023-06-22T12:49:26;19.20;99.90
15717;DHT22;7960;50.908;4.204;2023-06-22T12:51:53;19.20;99.90
15717;DHT22;7960;50.908;4.204;2023-06-22T12:54:20;19.20;99.90
15717;DHT22;7960;50.908;4.204;2023-06-22T12:56:50;19.20;99.90
15717;DHT22;7960;50.908;4.204;2023-06-22T12:59:17;19.10;99.90
15717;DHT22;7960;50.908;4.204;2023-06-22T13:01:44;19.10;99.90
15717;DHT22;7960;50.908;4.204;2023-06-22T13:04:11;19.10;99.90
15717;DHT22;7960;50.908;4.204;2023-06-22T13:06:40;19.20;99.90
15717;DHT22;7960;50.908;4.204;2023-06-22T13:09:07;19.10;99.90
15717;DHT22;7960;50.908;4.204;2023-06-22T13:11:34;19.10;99.90
15717;DHT22;7960;50.908;4.204;2023-06-22T13:14:02;19.10;99.90
15717;DHT22;7960;50.908;4.204;2023-06-22T13:16:29;19.20;99.90
15717;DHT22;7960;50.908;4.204;2023-06-22T13:18:56;19.10;99.90
15717;DHT22;7960;50.908;4.204;2023-06-22T13:21:23;19.20;99.90
15717;DHT22;7960;50.908;4.204;2023-06-22T13:23:50;19.10;99.90
15717;DHT22;7960;50.908;4.204;2023-06-22T13:26:17;19.10;99.90
15717;DHT22;7960;50.908;4.204;2023-06-22T13:28:44;19.00;99.90
15717;DHT22;7960;50.908;4.204;2023-06-22T13:31:12;19.00;99.90
15717;DHT22;7960;50.908;4.204;2023-06-22T13:33:39;19.00;99.90
15717;DHT22;7960;50.908;4.204;2023-06-22T13:36:06;19.00;99.90
15717;DHT22;7960;50.908;4.204;2023-06-22T13:38:34;19.00;99.90
15717;DHT22;7960;50.908;4.204;2023-06-22T13:41:03;18.90;99.90
15717;DHT22;7960;50.908;4.204;2023-06-22T13:43:30;18.80;99.90
15717;DHT22;7960;50.908;4.204;2023-06-22T13:45:57;18.80;99.90
15717;DHT22;7960;50.908;4.204;2023-06-22T13:48:26;18.80;99.90
15717;DHT22;7960;50.908;4.204;2023-06-22T13:50:54;18.80;99.90
15717;DHT22;7960;50.908;4.204;2023-06-22T13:53:21;18.80;99.90
15717;DHT22;7960;50.908;4.204;2023-06-22T13:55:47;18.80;99.90
15717;DHT22;7960;50.908;4.204;2023-06-22T13:58:14;18.90;99.90
15717;DHT22;7960;50.908;4.204;2023-06-22T14:00:41;18.80;99.90
15717;DHT22;7960;50.908;4.204;2023-06-22T14:03:08;18.90;99.90
15717;DHT22;7960;50.908;4.204;2023-06-22T14:05:36;18.90;99.90
15717;DHT22;7960;50.908;4.204;2023-06-22T14:08:03;18.90;99.90
15717;DHT22;7960;50.908;4.204;2023-06-22T14:10:30;18.90;99.90
15717;DHT22;7960;50.908;4.204;2023-06-22T14:12:57;18.90;99.90
15717;DHT22;7960;50.908;4.204;2023-06-22T14:15:25;18.90;99.90
15717;DHT22;7960;50.908;4.204;2023-06-22T14:17:52;19.00;99.90
15717;DHT22;7960;50.908;4.204;2023-06-22T14:20:19;18.90;99.90
15717;DHT22;7960;50.908;4.204;2023-06-22T14:22:47;19.00;99.90
15717;DHT22;7960;50.908;4.204;2023-06-22T14:25:14;19.00;99.90
15717;DHT22;7960;50.908;4.204;2023-06-22T14:27:41;19.00;99.90
15717;DHT22;7960;50.908;4.204;2023-06-22T14:30:10;19.10;99.90
15717;DHT22;7960;50.908;4.204;2023-06-22T14:32:37;19.10;99.90
15717;DHT22;7960;50.908;4.204;2023-06-22T14:35:04;19.20;99.90
15717;DHT22;7960;50.908;4.204;2023-06-22T14:37:31;19.20;99.90
15717;DHT22;7960;50.908;4.204;2023-06-22T14:39:59;19.20;99.90
15717;DHT22;7960;50.908;4.204;2023-06-22T14:42:26;19.20;99.90
15717;DHT22;7960;50.908;4.204;2023-06-22T14:44:55;19.20;99.90
15717;DHT22;7960;50.908;4.204;2023-06-22T14:47:22;19.20;99.90
15717;DHT22;7960;50.908;4.204;2023-06-22T14:49:49;19.20;99.90
15717;DHT22;7960;50.908;4.204;2023-06-22T14:52:16;19.10;99.90
15717;DHT22;7960;50.908;4.204;2023-06-22T14:54:43;19.20;99.90
15717;DHT22;7960;50.908;4.204;2023-06-22T14:57:11;19.20;99.90
15717;DHT22;7960;50.908;4.204;2023-06-22T14:59:38;19.10;99.90
15717;DHT22;7960;50.908;4.204;2023-06-22T15:02:05;19.10;99.90
15717;DHT22;7960;50.908;4.204;2023-06-22T15:04:32;19.20;99.90
15717;DHT22;7960;50.908;4.204;2023-06-22T15:07:00;19.20;99.90
15717;DHT22;7960;50.908;4.204;2023-06-22T15:09:27;19.30;99.90
15717;DHT22;7960;50.908;4.204;2023-06-22T15:11:54;19.10;99.90
15717;DHT22;7960;50.908;4.204;2023-06-22T15:14:22;19.10;99.90
15717;DHT22;7960;50.908;4.204;2023-06-22T15:16:50;19.20;99.90
15717;DHT22;7960;50.908;4.204;2023-06-22T15:19:16;19.20;99.90
15717;DHT22;7960;50.908;4.204;2023-06-22T15:21:43;19.30;99.90
15717;DHT22;7960;50.908;4.204;2023-06-22T15:24:11;19.20;99.90
15717;DHT22;7960;50.908;4.204;2023-06-22T15:26:38;19.30;99.90
15717;DHT22;7960;50.908;4.204;2023-06-22T15:29:05;19.40;99.90
15717;DHT22;7960;50.908;4.204;2023-06-22T15:31:33;19.50;99.90
15717;DHT22;7960;50.908;4.204;2023-06-22T15:34:00;19.50;99.90
15717;DHT22;7960;50.908;4.204;2023-06-22T15:36:29;19.60;99.90
15717;DHT22;7960;50.908;4.204;2023-06-22T15:38:56;19.60;99.90
15717;DHT22;7960;50.908;4.204;2023-06-22T15:41:22;19.60;99.90
15717;DHT22;7960;50.908;4.204;2023-06-22T15:43:49;19.70;99.90
15717;DHT22;7960;50.908;4.204;2023-06-22T15:46:16;19.70;99.90
15717;DHT22;7960;50.908;4.204;2023-06-22T15:48:44;19.70;99.90